Time;durP1;ratioP1;P1;durP2;ratioP2;P2;SDS_P1;SDS_P2;PMS_P1;PMS_P2;Temp;Humidity;BMP_temperature;BMP_pressure;BME280_temperature;BME280_humidity;BME280_pressure;Samples;Min_cycle;Max_cycle;Signal;HPM_P1;HPM_P2
2024/01/25 00:00:33;;;;;;;8.80;2.20;;;;;;;4.04;100.00;98306.36;107416;1280;68079;-61
2024/01/25 00:03:39;;;;;;;9.30;1.60;;;;;;;4.05;100.00;98313.18;107401;1280;72508;-62
2024/01/25 00:06:27;;;;;;;11.30;2.00;;;;;;;4.04;100.00;98311.66;107414;1280;58442;-61
2024/01/25 00:09:15;;;;;;;9.40;1.70;;;;;;;4.03;100.00;98311.59;107442;1279;61484;-60
2024/01/25 00:12:03;;;;;;;7.50;1.40;;;;;;;4.00;100.00;98323.16;107449;1279;72848;-61
2024/01/25 00:14:52;;;;;;;10.90;2.00;;;;;;;3.99;100.00;98329.94;107470;1279;67693;-61
2024/01/25 00:17:41;;;;;;;8.70;1.70;;;;;;;3.99;100.00;98330.10;107437;1280;72566;-62
2024/01/25 00:20:31;;;;;;;12.90;2.40;;;;;;;3.97;100.00;98330.84;107420;1279;59600;-62
2024/01/25 00:23:20;;;;;;;9.40;1.90;;;;;;;3.95;100.00;98334.68;107384;1280;58793;-62
2024/01/25 00:26:08;;;;;;;8.40;1.50;;;;;;;3.95;100.00;98341.19;106706;1279;1002305;-61
2024/01/25 00:28:55;;;;;;;11.40;1.80;;;;;;;3.93;100.00;98342.88;107363;1279;68752;-62
2024/01/25 00:31:43;;;;;;;9.40;2.00;;;;;;;3.92;100.00;98346.48;107433;1279;72476;-61
2024/01/25 00:34:31;;;;;;;10.10;1.80;;;;;;;3.92;100.00;98354.16;107337;1280;58528;-60
2024/01/25 00:37:22;;;;;;;8.80;1.70;;;;;;;3.91;100.00;98364.29;107321;1280;60456;-61
2024/01/25 00:40:13;;;;;;;9.80;1.70;;;;;;;3.91;100.00;98360.92;107345;1280;73143;-61
2024/01/25 00:43:01;;;;;;;8.80;1.90;;;;;;;3.90;100.00;98360.98;107372;1280;66727;-61
2024/01/25 00:45:50;;;;;;;13.00;2.40;;;;;;;3.89;100.00;98365.07;107432;1280;73606;-62
2024/01/25 00:48:40;;;;;;;11.10;2.20;;;;;;;3.88;100.00;98363.74;107351;1280;60078;-62
2024/01/25 00:51:28;;;;;;;11.50;2.10;;;;;;;3.89;100.00;98361.77;107517;1280;58168;-62
2024/01/25 00:54:17;;;;;;;9.50;1.70;;;;;;;3.86;100.00;98365.37;107668;1280;72836;-62
2024/01/25 00:57:06;;;;;;;9.40;2.00;;;;;;;3.87;100.00;98363.36;107684;1280;66706;-64
2024/01/25 00:59:54;;;;;;;10.90;1.80;;;;;;;3.88;100.00;98370.60;107467;1279;71352;-62
2024/01/25 01:02:45;;;;;;;10.90;2.00;;;;;;;3.89;100.00;98372.33;107410;1279;60571;-62
2024/01/25 01:05:35;;;;;;;15.10;1.90;;;;;;;3.87;100.00;98380.35;107347;1280;61378;-62
2024/01/25 01:08:25;;;;;;;9.60;1.70;;;;;;;3.86;100.00;98396.93;107468;1279;73105;-62
2024/01/25 01:11:12;;;;;;;19.30;2.50;;;;;;;3.84;100.00;98384.45;107353;1280;68833;-62
2024/01/25 01:14:01;;;;;;;10.60;1.60;;;;;;;3.84;100.00;98392.52;107324;1280;73870;-63
2024/01/25 01:16:50;;;;;;;15.70;2.20;;;;;;;3.82;100.00;98402.30;107262;1280;57771;-63
2024/01/25 01:19:38;;;;;;;10.30;1.80;;;;;;;3.79;100.00;98391.85;107112;1279;61562;-63
2024/01/25 01:22:26;;;;;;;10.50;2.20;;;;;;;3.79;100.00;98394.31;107294;1280;72914;-64
2024/01/25 01:25:14;;;;;;;8.30;1.90;;;;;;;3.78;100.00;98392.09;107348;1280;67688;-63
2024/01/25 01:28:02;;;;;;;9.20;1.70;;;;;;;3.77;100.00;98400.41;107156;1280;72804;-62
2024/01/25 01:30:50;;;;;;;10.90;1.80;;;;;;;3.75;100.00;98407.75;107139;1280;58589;-63
2024/01/25 01:33:37;;;;;;;13.70;2.30;;;;;;;3.75;100.00;98416.52;107378;1279;59013;-64
2024/01/25 01:36:26;;;;;;;9.60;1.60;;;;;;;3.72;100.00;98418.63;107343;1280;73010;-62
2024/01/25 01:39:14;;;;;;;18.60;1.90;;;;;;;3.72;100.00;98415.38;107160;1280;66683;-63
2024/01/25 01:42:03;;;;;;;13.70;2.40;;;;;;;3.71;100.00;98413.46;107254;1280;71845;-66
2024/01/25 01:44:52;;;;;;;12.20;2.20;;;;;;;3.71;100.00;98415.92;107096;1280;59622;-63
2024/01/25 01:47:41;;;;;;;18.50;3.00;;;;;;;3.62;100.00;98403.61;107155;1280;59956;-63
2024/01/25 01:50:29;;;;;;;20.70;3.10;;;;;;;3.71;100.00;98417.34;107151;1280;71749;-63
2024/01/25 01:53:17;;;;;;;16.50;2.90;;;;;;;3.73;100.00;98428.78;107170;1279;66829;-63
2024/01/25 01:56:06;;;;;;;17.10;2.90;;;;;;;3.71;100.00;98414.33;107207;1281;73461;-63
2024/01/25 01:58:57;;;;;;;23.80;3.10;;;;;;;3.72;100.00;98419.02;107027;1280;59736;-63
2024/01/25 02:01:44;;;;;;;24.20;4.00;;;;;;;3.71;100.00;98422.42;107329;1280;60166;-63
2024/01/25 02:04:32;;;;;;;17.00;2.90;;;;;;;3.59;100.00;98409.83;107311;1281;71746;-63
2024/01/25 02:07:20;;;;;;;16.40;3.70;;;;;;;3.70;100.00;98424.63;107163;1281;65840;-62
2024/01/25 02:10:09;;;;;;;12.20;2.00;;;;;;;3.69;100.00;98426.23;107156;1282;71335;-63
2024/01/25 02:12:57;;;;;;;18.30;3.00;;;;;;;3.67;100.00;98420.09;106992;1280;58855;-63
2024/01/25 02:15:46;;;;;;;14.60;2.30;;;;;;;3.67;100.00;98415.20;107361;1280;59311;-62
2024/01/25 02:18:34;;;;;;;16.70;2.30;;;;;;;3.66;100.00;98414.42;107351;1280;73033;-62
2024/01/25 02:21:22;;;;;;;14.00;2.40;;;;;;;3.64;100.00;98420.32;107080;1281;67640;-62
2024/01/25 02:24:10;;;;;;;15.80;2.60;;;;;;;3.64;100.00;98417.02;107120;1281;72525;-63
2024/01/25 02:26:58;;;;;;;13.10;2.30;;;;;;;3.64;100.00;98417.70;107244;1281;58536;-62
2024/01/25 02:29:47;;;;;;;12.90;2.00;;;;;;;3.61;100.00;98415.11;106243;1281;1002234;-64
2024/01/25 02:32:35;;;;;;;14.00;2.40;;;;;;;3.60;100.00;98412.91;107064;1281;73094;-63
2024/01/25 02:35:22;;;;;;;15.40;2.50;;;;;;;3.58;100.00;98415.52;107256;1281;68717;-63
2024/01/25 02:38:11;;;;;;;9.70;1.90;;;;;;;3.55;100.00;98418.21;107107;1281;72450;-62
2024/01/25 02:40:58;;;;;;;8.90;1.80;;;;;;;3.54;100.00;98417.89;106481;1281;1002454;-63
2024/01/25 02:43:46;;;;;;;11.80;1.90;;;;;;;3.53;100.00;98414.84;107061;1281;57928;-61
2024/01/25 02:46:34;;;;;;;13.20;2.10;;;;;;;3.51;100.00;98423.56;107220;1281;73935;-63
2024/01/25 02:49:24;;;;;;;12.10;2.60;;;;;;;3.50;100.00;98424.16;107256;1281;67915;-64
2024/01/25 02:52:12;;;;;;;12.60;1.80;;;;;;;3.50;100.00;98424.55;107212;1281;73748;-64
2024/01/25 02:55:00;;;;;;;16.80;2.30;;;;;;;3.50;100.00;98427.34;107216;1285;57358;-62
2024/01/25 02:57:49;;;;;;;12.80;2.30;;;;;;;3.51;100.00;98430.74;107221;1281;57861;-62
2024/01/25 03:00:37;;;;;;;14.20;2.80;;;;;;;3.52;100.00;98432.77;107099;1281;74348;-63
2024/01/25 03:03:25;;;;;;;15.70;2.30;;;;;;;3.52;100.00;98441.05;107235;1281;68223;-62
2024/01/25 03:06:13;;;;;;;14.50;2.40;;;;;;;3.44;100.00;98423.04;107169;1281;72818;-61
2024/01/25 03:09:04;;;;;;;11.30;1.90;;;;;;;3.55;100.00;98437.63;107209;1281;58877;-62
2024/01/25 03:11:52;;;;;;;16.60;2.50;;;;;;;3.56;100.00;98450.73;107217;1281;58807;-62
2024/01/25 03:14:40;;;;;;;12.20;2.50;;;;;;;3.55;100.00;98446.92;107246;1281;71530;-63
2024/01/25 03:17:28;;;;;;;8.50;1.80;;;;;;;3.54;100.00;98442.10;107249;1281;66921;-63
2024/01/25 03:20:16;;;;;;;9.10;1.80;;;;;;;3.55;100.00;98459.77;107205;1281;71424;-62
2024/01/25 03:23:04;;;;;;;14.50;2.20;;;;;;;3.53;100.00;98459.52;107120;1281;58091;-62
2024/01/25 03:25:52;;;;;;;8.10;1.70;;;;;;;3.53;100.00;98464.67;107234;1281;58823;-63
2024/01/25 03:28:40;;;;;;;9.90;1.80;;;;;;;3.52;100.00;98462.98;107174;1281;72315;-63
2024/01/25 03:31:28;;;;;;;8.50;2.30;;;;;;;3.52;100.00;98457.36;105756;1281;1002807;-62
2024/01/25 03:34:16;;;;;;;10.70;2.70;;;;;;;3.50;100.00;98450.11;107233;1281;71161;-62
2024/01/25 03:37:05;;;;;;;13.20;2.00;;;;;;;3.50;100.00;98465.20;107008;1281;58725;-62
2024/01/25 03:39:53;;;;;;;9.70;1.70;;;;;;;3.51;100.00;98467.77;107156;1281;59084;-62
2024/01/25 03:42:41;;;;;;;9.80;1.80;;;;;;;3.50;100.00;98480.44;107254;1281;74102;-62
2024/01/25 03:45:37;;;;;;;13.60;1.80;;;;;;;3.50;100.00;98484.86;107230;1281;66829;-62
2024/01/25 03:48:25;;;;;;;9.40;1.90;;;;;;;3.40;100.00;98484.70;107190;1281;72682;-62
2024/01/25 03:51:13;;;;;;;9.20;1.90;;;;;;;3.50;100.00;98505.76;107034;1281;57644;-63
2024/01/25 03:54:01;;;;;;;8.10;1.50;;;;;;;3.49;100.00;98503.70;107176;1281;60550;-63
2024/01/25 03:56:49;;;;;;;10.20;1.70;;;;;;;3.47;100.00;98506.81;107046;1281;72812;-62
2024/01/25 03:59:38;;;;;;;8.20;1.40;;;;;;;3.45;100.00;98505.77;107225;1281;68697;-62
2024/01/25 04:02:26;;;;;;;6.80;1.20;;;;;;;3.43;100.00;98508.00;107181;1281;71470;-62
2024/01/25 04:05:14;;;;;;;9.50;1.70;;;;;;;3.41;100.00;98502.14;107147;1281;57755;-62
2024/01/25 04:08:02;;;;;;;11.10;2.00;;;;;;;3.41;100.00;98507.06;107207;1281;59494;-61
2024/01/25 04:10:50;;;;;;;8.70;2.00;;;;;;;3.41;100.00;98515.99;107259;1281;72505;-62
2024/01/25 04:13:38;;;;;;;9.40;2.00;;;;;;;3.41;100.00;98512.17;107230;1281;66937;-63
2024/01/25 04:16:26;;;;;;;11.30;2.00;;;;;;;3.41;100.00;98511.45;106966;1286;72534;-63
2024/01/25 04:19:14;;;;;;;13.70;2.10;;;;;;;3.42;100.00;98511.55;107166;1281;59566;-62
2024/01/25 04:22:02;;;;;;;11.50;2.20;;;;;;;3.46;100.00;98520.96;107292;1281;60011;-62
2024/01/25 04:24:50;;;;;;;12.40;2.00;;;;;;;3.47;100.00;98527.69;107340;1280;72912;-62
2024/01/25 04:27:38;;;;;;;8.60;1.50;;;;;;;3.48;100.00;98531.48;107358;1281;66125;-62
2024/01/25 04:30:26;;;;;;;12.80;2.30;;;;;;;3.50;100.00;98540.45;107285;1280;71645;-63
2024/01/25 04:33:14;;;;;;;12.80;2.50;;;;;;;3.51;100.00;98549.30;107278;1280;59464;-61
2024/01/25 04:36:02;;;;;;;9.80;1.80;;;;;;;3.51;100.00;98549.64;107145;1280;60087;-62
2024/01/25 04:38:50;;;;;;;9.20;1.60;;;;;;;3.53;100.00;98553.18;107336;1281;71792;-62
2024/01/25 04:41:38;;;;;;;10.20;2.10;;;;;;;3.51;100.00;98553.52;107345;1283;67658;-62
2024/01/25 04:44:26;;;;;;;8.60;1.90;;;;;;;3.52;100.00;98553.27;107313;1280;72909;-62
2024/01/25 04:47:14;;;;;;;8.30;2.10;;;;;;;3.50;100.00;98563.39;107316;1280;57578;-63
2024/01/25 04:50:02;;;;;;;9.30;2.40;;;;;;;3.50;100.00;98567.59;107344;1281;58763;-63
2024/01/25 04:52:50;;;;;;;11.00;2.30;;;;;;;3.50;100.00;98572.89;107103;1280;73222;-62
2024/01/25 04:55:37;;;;;;;11.90;2.10;;;;;;;3.49;100.00;98580.88;107162;1282;68632;-62
2024/01/25 04:58:25;;;;;;;11.10;2.30;;;;;;;3.48;100.00;98590.42;107352;1280;71401;-63
2024/01/25 05:01:13;;;;;;;11.70;1.90;;;;;;;3.50;100.00;98587.12;107159;1280;57338;-63
2024/01/25 05:04:03;;;;;;;10.60;2.00;;;;;;;3.47;100.00;98583.43;107334;1285;61515;-63
2024/01/25 05:06:51;;;;;;;9.30;1.90;;;;;;;3.49;100.00;98602.40;107315;1280;74351;-62
2024/01/25 05:09:39;;;;;;;9.50;1.90;;;;;;;3.51;100.00;98603.33;107251;1281;67709;-62
2024/01/25 05:12:27;;;;;;;9.90;2.20;;;;;;;3.53;100.00;98616.20;107312;1280;70817;-62
2024/01/25 05:15:16;;;;;;;9.50;1.90;;;;;;;3.51;100.00;98612.63;107253;1280;57604;-61
2024/01/25 05:18:05;;;;;;;11.00;2.00;;;;;;;3.54;100.00;98620.09;107087;1280;60245;-62
2024/01/25 05:20:54;;;;;;;8.40;1.80;;;;;;;3.58;100.00;98631.95;107243;1280;70653;-63
2024/01/25 05:23:43;;;;;;;8.60;1.90;;;;;;;3.59;100.00;98632.93;107196;1279;66747;-62
2024/01/25 05:26:31;;;;;;;9.20;1.80;;;;;;;3.59;100.00;98634.52;107323;1279;73567;-63
2024/01/25 05:29:19;;;;;;;8.70;1.90;;;;;;;3.59;100.00;98637.81;105866;1279;1003132;-63
2024/01/25 05:32:07;;;;;;;9.80;2.00;;;;;;;3.60;100.00;98644.46;107348;1279;58820;-61
2024/01/25 05:34:56;;;;;;;10.10;2.00;;;;;;;3.61;100.00;98650.48;107241;1279;72247;-62
2024/01/25 05:37:44;;;;;;;10.10;1.70;;;;;;;3.62;100.00;98647.13;107267;1279;66842;-63
2024/01/25 05:40:32;;;;;;;7.90;1.60;;;;;;;3.62;100.00;98656.44;107246;1280;73032;-62
2024/01/25 05:43:19;;;;;;;10.80;1.80;;;;;;;3.62;100.00;98657.95;107061;1280;58031;-62
2024/01/25 05:46:09;;;;;;;7.50;1.40;;;;;;;3.61;100.00;98668.77;107384;1279;58837;-63
2024/01/25 05:48:57;;;;;;;8.10;2.00;;;;;;;3.62;100.00;98669.23;107362;1279;72084;-63
2024/01/25 05:51:45;;;;;;;12.00;2.00;;;;;;;3.63;100.00;98675.08;107348;1280;66034;-63
2024/01/25 05:54:33;;;;;;;11.70;1.60;;;;;;;3.64;100.00;98678.14;106868;1279;73908;-64
2024/01/25 05:57:21;;;;;;;9.40;1.60;;;;;;;3.65;100.00;98682.65;107301;1279;59664;-63
2024/01/25 06:00:12;;;;;;;9.30;1.40;;;;;;;3.67;100.00;98694.48;107209;1279;60275;-63
2024/01/25 06:03:00;;;;;;;8.40;1.60;;;;;;;3.67;100.00;98698.80;107112;1280;72885;-62
2024/01/25 06:05:49;;;;;;;9.40;2.40;;;;;;;3.69;100.00;98709.61;107260;1280;68684;-62
2024/01/25 06:08:37;;;;;;;5.80;1.60;;;;;;;3.67;100.00;98708.99;107302;1279;72723;-62
2024/01/25 06:11:26;;;;;;;10.00;1.80;;;;;;;3.67;100.00;98716.54;107116;1279;59940;-65
2024/01/25 06:14:14;;;;;;;7.80;1.70;;;;;;;3.68;100.00;98711.75;107289;1280;60335;-66
2024/01/25 06:17:02;;;;;;;8.50;2.00;;;;;;;3.69;100.00;98719.02;107417;1280;71581;-65
2024/01/25 06:19:49;;;;;;;9.20;1.80;;;;;;;3.69;100.00;98719.40;107395;1279;68015;-63
2024/01/25 06:22:38;;;;;;;6.90;1.60;;;;;;;3.69;100.00;98729.70;107096;1280;72467;-64
2024/01/25 06:25:30;;;;;;;7.10;1.80;;;;;;;3.70;100.00;98732.29;107372;1280;58019;-64
2024/01/25 06:28:19;;;;;;;6.70;1.50;;;;;;;3.71;100.00;98746.78;107310;1280;61657;-64
2024/01/25 06:31:07;;;;;;;9.30;1.70;;;;;;;3.73;100.00;98752.80;107440;1279;71976;-64
2024/01/25 06:33:55;;;;;;;7.70;1.70;;;;;;;3.74;100.00;98764.78;107307;1280;67723;-63
2024/01/25 06:36:43;;;;;;;8.70;2.00;;;;;;;3.74;100.00;98765.53;107331;1282;72761;-63
2024/01/25 06:39:32;;;;;;;10.40;1.70;;;;;;;3.74;100.00;98778.11;107354;1279;59684;-62
2024/01/25 06:42:20;;;;;;;6.80;1.70;;;;;;;3.75;100.00;98783.33;107226;1280;59021;-63
2024/01/25 06:45:09;;;;;;;7.00;1.40;;;;;;;3.75;100.00;98790.20;107397;1280;72874;-63
2024/01/25 06:47:57;;;;;;;7.50;1.40;;;;;;;3.76;100.00;98804.88;107212;1280;66794;-63
2024/01/25 06:50:45;;;;;;;7.40;1.30;;;;;;;3.73;100.00;98807.73;107434;1279;72452;-64
2024/01/25 06:53:32;;;;;;;5.00;1.20;;;;;;;3.72;100.00;98824.61;103497;1280;1003198;-63
2024/01/25 06:56:20;;;;;;;7.60;1.20;;;;;;;3.70;100.00;98834.25;107401;1279;61269;-65
2024/01/25 06:59:08;;;;;;;8.10;1.60;;;;;;;3.68;100.00;98841.94;107404;1280;72845;-65
2024/01/25 07:01:57;;;;;;;8.60;2.00;;;;;;;3.67;100.00;98856.86;107197;1280;67657;-65
2024/01/25 07:04:45;;;;;;;5.60;1.40;;;;;;;3.49;100.00;98859.17;107323;1279;70588;-64
2024/01/25 07:07:34;;;;;;;4.40;1.00;;;;;;;3.38;100.00;98892.17;107320;1280;58559;-63
2024/01/25 07:10:22;;;;;;;4.20;1.20;;;;;;;3.20;100.00;98900.15;107354;1279;61112;-62
2024/01/25 07:13:10;;;;;;;3.90;1.10;;;;;;;3.12;100.00;98918.77;107248;1280;73096;-65
2024/01/25 07:15:58;;;;;;;4.50;1.20;;;;;;;3.02;100.00;98924.50;107258;1280;68693;-63
2024/01/25 07:18:47;;;;;;;4.50;1.10;;;;;;;2.90;100.00;98936.63;103636;1280;1015944;-65
2024/01/25 07:21:35;;;;;;;4.60;1.10;;;;;;;2.82;100.00;98942.02;107271;1280;58296;-63
2024/01/25 07:24:22;;;;;;;4.40;1.10;;;;;;;2.76;100.00;98947.55;107231;1280;60801;-63
2024/01/25 07:27:10;;;;;;;4.40;0.90;;;;;;;2.71;100.00;98954.10;107394;1279;72728;-63
2024/01/25 07:29:58;;;;;;;4.00;1.00;;;;;;;2.65;100.00;98962.75;107293;1279;66870;-63
2024/01/25 07:32:46;;;;;;;4.10;1.00;;;;;;;2.60;100.00;98966.89;106612;1280;1002483;-64
2024/01/25 07:35:35;;;;;;;4.00;1.00;;;;;;;2.56;100.00;98969.76;107164;1280;58714;-63
2024/01/25 07:38:23;;;;;;;4.60;1.20;;;;;;;2.54;100.00;98983.38;107311;1280;60016;-64
2024/01/25 07:41:11;;;;;;;4.60;1.30;;;;;;;2.48;100.00;98995.66;107400;1280;72869;-63
2024/01/25 07:43:59;;;;;;;4.80;1.40;;;;;;;2.41;100.00;99000.27;107084;1280;67777;-63
2024/01/25 07:46:47;;;;;;;4.20;1.00;;;;;;;2.39;100.00;99010.04;107344;1280;72691;-64
2024/01/25 07:49:35;;;;;;;4.80;1.30;;;;;;;2.34;100.00;99023.29;107199;1280;59573;-62
2024/01/25 07:52:23;;;;;;;5.20;1.40;;;;;;;2.29;100.00;99044.08;107227;1280;58885;-67
2024/01/25 07:55:14;;;;;;;6.20;1.30;;;;;;;2.13;100.00;99032.23;107360;1279;71983;-66
2024/01/25 07:58:01;;;;;;;5.50;1.40;;;;;;;2.20;100.00;99055.27;107268;1280;65901;-65
2024/01/25 08:00:51;;;;;;;7.00;1.60;;;;;;;2.16;100.00;99065.66;107320;1279;73303;-64
2024/01/25 08:03:39;;;;;;;7.00;1.40;;;;;;;2.04;100.00;99058.14;107350;1279;58525;-68
2024/01/25 08:06:27;;;;;;;6.00;1.80;;;;;;;2.06;100.00;99082.16;107181;1280;61121;-63
2024/01/25 08:09:14;;;;;;;5.60;1.70;;;;;;;2.03;100.00;99091.43;107204;1279;71923;-64
2024/01/25 08:12:03;;;;;;;6.20;1.70;;;;;;;1.94;100.00;99097.38;107318;1279;66436;-66
2024/01/25 08:14:50;;;;;;;5.20;1.50;;;;;;;1.90;100.00;99113.02;107343;1280;72806;-64
2024/01/25 08:17:38;;;;;;;4.70;1.30;;;;;;;1.84;100.00;99121.90;107381;1279;57356;-63
2024/01/25 08:20:26;;;;;;;7.80;2.10;;;;;;;1.76;100.00;99121.15;107367;1280;58774;-65
2024/01/25 08:23:14;;;;;;;5.50;1.40;;;;;;;1.71;100.00;99124.89;107309;1280;73995;-65
2024/01/25 08:26:02;;;;;;;5.50;1.50;;;;;;;1.69;100.00;99127.48;107336;1279;65640;-67
2024/01/25 08:28:50;;;;;;;6.80;1.70;;;;;;;1.68;100.00;99135.05;107118;1280;72496;-63
2024/01/25 08:31:38;;;;;;;6.30;1.40;;;;;;;1.62;100.00;99142.70;107365;1280;58571;-63
2024/01/25 08:34:26;;;;;;;6.80;2.10;;;;;;;1.62;100.00;99146.77;107367;1280;59273;-63
2024/01/25 08:37:14;;;;;;;5.50;1.90;;;;;;;1.61;100.00;99151.34;107422;1279;71507;-65
2024/01/25 08:40:05;;;;;;;6.80;1.80;;;;;;;1.63;100.00;99159.83;107270;1280;66665;-63
2024/01/25 08:42:53;;;;;;;5.60;1.50;;;;;;;1.66;100.00;99164.73;107282;1280;73570;-66
2024/01/25 08:45:42;;;;;;;5.60;1.60;;;;;;;1.70;100.00;99176.89;107321;1279;57356;-65
2024/01/25 08:48:30;;;;;;;6.40;2.10;;;;;;;1.69;100.00;99185.52;107185;1279;59163;-65
2024/01/25 08:51:18;;;;;;;6.10;1.30;;;;;;;1.68;100.00;99187.35;107273;1279;72844;-66
2024/01/25 08:54:06;;;;;;;6.70;1.40;;;;;;;1.70;100.00;99193.51;107223;1279;67941;-63
2024/01/25 08:56:54;;;;;;;5.30;1.70;;;;;;;1.73;100.00;99203.48;107262;1280;72493;-63
2024/01/25 08:59:42;;;;;;;4.60;1.30;;;;;;;1.75;100.00;99208.48;107185;1279;59830;-63
2024/01/25 09:02:32;;;;;;;4.70;1.10;;;;;;;1.80;100.00;99211.86;107394;1280;59122;-61
2024/01/25 09:05:20;;;;;;;6.10;1.60;;;;;;;1.86;100.00;99222.89;107229;1280;71085;-63
2024/01/25 09:08:09;;;;;;;4.80;1.20;;;;;;;1.90;100.00;99232.84;107389;1279;69007;-63
2024/01/25 09:10:57;;;;;;;4.40;1.20;;;;;;;1.95;100.00;99239.39;107205;1280;72713;-63
2024/01/25 09:13:47;;;;;;;4.60;1.30;;;;;;;2.03;100.00;99245.25;107211;1280;57383;-63
2024/01/25 09:16:38;;;;;;;5.40;1.50;;;;;;;2.14;100.00;99251.64;107157;1279;60222;-62
2024/01/25 09:19:26;;;;;;;4.50;1.10;;;;;;;2.28;100.00;99254.55;107304;1280;72859;-63
2024/01/25 09:22:16;;;;;;;4.50;1.20;;;;;;;2.40;100.00;99246.01;107290;1279;66634;-66
2024/01/25 09:25:05;;;;;;;5.60;1.50;;;;;;;2.87;100.00;99274.63;107297;1279;71214;-66
2024/01/25 09:27:57;;;;;;;7.60;1.50;;;;;;;3.21;100.00;99278.23;107086;1279;59555;-62
2024/01/25 09:30:45;;;;;;;6.00;1.60;;;;;;;3.91;100.00;99283.48;107257;1279;60344;-70
2024/01/25 09:33:33;;;;;;;5.40;1.40;;;;;;;5.04;100.00;99288.61;107101;1280;336365;-70
2024/01/25 09:36:22;;;;;;;6.00;1.70;;;;;;;5.66;99.95;99288.48;107110;1279;66852;-70
2024/01/25 09:39:10;;;;;;;4.60;1.20;;;;;;;5.94;99.14;99293.93;107270;1280;72444;-72
2024/01/25 09:41:58;;;;;;;5.30;1.40;;;;;;;5.92;98.78;99302.54;107080;1279;57815;-71
2024/01/25 09:44:47;;;;;;;4.90;1.50;;;;;;;5.70;98.55;99304.75;106481;1280;1002247;-69
2024/01/25 09:47:34;;;;;;;5.80;1.30;;;;;;;5.47;97.16;99305.29;107279;1279;73268;-71
2024/01/25 09:50:23;;;;;;;9.20;3.50;;;;;;;5.29;97.79;99304.60;107157;1279;67517;-70
2024/01/25 09:53:20;;;;;;;6.40;2.10;;;;;;;5.18;98.22;99310.03;105623;1280;1002632;-63
2024/01/25 09:56:12;;;;;;;7.30;1.70;;;;;;;5.14;97.52;99318.41;107065;1280;57401;-61
2024/01/25 09:59:04;;;;;;;7.30;2.20;;;;;;;5.32;96.87;99319.52;107123;1280;60583;-61
2024/01/25 10:01:52;;;;;;;7.00;2.00;;;;;;;5.68;96.52;99329.20;107330;1279;72834;-63
2024/01/25 10:04:40;;;;;;;6.40;1.60;;;;;;;5.74;94.20;99336.20;107150;1280;67677;-64
2024/01/25 10:07:43;;;;;;;5.60;1.40;;;;;;;5.54;94.53;99338.95;107106;1279;71490;-65
2024/01/25 10:10:33;;;;;;;5.10;1.40;;;;;;;5.28;95.13;99348.77;107154;1279;57440;-62
2024/01/25 10:13:22;;;;;;;5.80;1.50;;;;;;;5.13;94.32;99351.58;107329;1280;60289;-63
2024/01/25 10:16:18;;;;;;;6.20;1.60;;;;;;;5.15;96.30;99355.25;107235;1280;73116;-61
2024/01/25 10:19:09;;;;;;;4.80;1.30;;;;;;;6.83;92.22;99356.68;107022;1279;67776;-62
2024/01/25 10:21:57;;;;;;;5.20;1.70;;;;;;;7.08;89.51;99359.41;107284;1279;73451;-61
2024/01/25 10:24:45;;;;;;;5.40;1.40;;;;;;;8.44;87.29;99363.71;107171;1279;58072;-62
2024/01/25 10:27:34;;;;;;;9.00;1.90;;;;;;;8.49;85.22;99364.86;107134;1279;60429;-63
2024/01/25 10:30:23;;;;;;;5.20;1.40;;;;;;;10.38;78.50;99363.27;107174;1280;72118;-63
2024/01/25 10:33:12;;;;;;;4.90;1.30;;;;;;;12.15;70.63;99360.30;107413;1279;66455;-63
2024/01/25 10:36:04;;;;;;;5.70;1.50;;;;;;;13.73;63.07;99353.69;107512;1279;73463;-62
2024/01/25 10:38:54;;;;;;;5.20;1.20;;;;;;;14.28;55.79;99357.15;107364;1279;57428;-62
2024/01/25 10:41:44;;;;;;;7.30;2.40;;;;;;;13.05;55.34;99360.84;107204;1280;59320;-62
2024/01/25 10:44:32;;;;;;;4.70;1.30;;;;;;;11.62;56.95;99367.59;107354;1279;72731;-62
2024/01/25 10:47:22;;;;;;;5.80;1.80;;;;;;;10.35;59.71;99375.77;107298;1280;67836;-62
2024/01/25 10:50:13;;;;;;;6.40;1.50;;;;;;;9.61;62.12;99378.43;107046;1280;71675;-62
2024/01/25 10:53:02;;;;;;;4.40;1.10;;;;;;;8.85;64.75;99389.01;107280;1280;57798;-62
2024/01/25 10:55:50;;;;;;;6.40;1.80;;;;;;;7.91;67.62;99396.05;107303;1279;58771;-63
2024/01/25 10:58:41;;;;;;;4.90;1.50;;;;;;;7.47;70.86;99401.73;107128;1279;74914;-64
2024/01/25 11:01:30;;;;;;;5.50;1.40;;;;;;;8.33;68.73;99403.56;107220;1279;66696;-63
2024/01/25 11:04:19;;;;;;;4.90;1.20;;;;;;;8.19;69.34;99404.98;107316;1280;72631;-64
2024/01/25 11:07:09;;;;;;;5.90;1.40;;;;;;;7.92;68.77;99414.17;107103;1279;57454;-62
2024/01/25 11:09:57;;;;;;;5.30;1.50;;;;;;;7.21;71.06;99419.30;107158;1280;58737;-65
2024/01/25 11:12:57;;;;;;;5.40;1.50;;;;;;;6.65;72.70;99428.63;107114;1280;71801;-65
2024/01/25 11:15:45;;;;;;;6.20;1.50;;;;;;;6.24;75.98;99439.11;107170;1280;66708;-64
2024/01/25 11:18:32;;;;;;;5.80;1.40;;;;;;;6.12;77.91;99439.61;107121;1279;72812;-64
2024/01/25 11:21:50;;;;;;;5.20;1.40;;;;;;;6.09;78.71;99446.98;107007;1280;57367;-63
2024/01/25 11:24:42;;;;;;;4.50;1.20;;;;;;;5.79;79.85;99455.52;107196;1280;60360;-63
2024/01/25 11:27:30;;;;;;;5.70;1.50;;;;;;;5.53;81.10;99458.01;107284;1280;73191;-64
2024/01/25 11:30:21;;;;;;;4.90;1.30;;;;;;;5.29;82.36;99470.48;107201;1279;67955;-62
2024/01/25 11:33:09;;;;;;;5.30;1.30;;;;;;;5.05;82.89;99472.85;107256;1279;72383;-63
2024/01/25 11:35:58;;;;;;;4.90;1.40;;;;;;;4.79;84.15;99480.68;107171;1280;57426;-63
2024/01/25 11:38:46;;;;;;;4.50;1.10;;;;;;;4.52;85.80;99485.15;107423;1279;60170;-63
2024/01/25 11:41:34;;;;;;;4.00;1.20;;;;;;;4.28;86.08;99490.81;107267;1279;74047;-63
2024/01/25 11:44:24;;;;;;;4.10;1.20;;;;;;;4.02;87.23;99498.14;107409;1279;67704;-63
2024/01/25 11:47:11;;;;;;;4.20;1.20;;;;;;;3.91;88.11;99499.53;107277;1280;71654;-63
2024/01/25 11:50:00;;;;;;;4.70;1.20;;;;;;;3.82;89.21;99501.82;107378;1279;57744;-62
2024/01/25 11:52:48;;;;;;;5.90;1.40;;;;;;;3.80;90.96;99500.02;107176;1279;61468;-63
2024/01/25 11:55:36;;;;;;;6.10;1.70;;;;;;;4.03;90.60;99504.61;107284;1280;73071;-63
2024/01/25 11:58:24;;;;;;;4.90;1.30;;;;;;;3.91;91.04;99509.55;107114;1279;66521;-66
2024/01/25 12:01:13;;;;;;;5.50;1.30;;;;;;;3.74;91.13;99511.39;107254;1279;72498;-63
2024/01/25 12:04:03;;;;;;;6.00;1.30;;;;;;;3.67;92.11;99518.48;107111;1280;58535;-63
2024/01/25 12:06:52;;;;;;;4.60;1.40;;;;;;;3.57;92.12;99523.25;107258;1280;59128;-62
2024/01/25 12:09:40;;;;;;;7.30;1.50;;;;;;;3.55;93.13;99527.21;107344;1279;72849;-63
2024/01/25 12:12:29;;;;;;;4.70;1.30;;;;;;;3.51;93.04;99537.45;107283;1280;65699;-64
2024/01/25 12:15:16;;;;;;;5.40;1.30;;;;;;;3.45;93.38;99547.27;107344;1280;72612;-63
2024/01/25 12:18:07;;;;;;;4.50;1.20;;;;;;;3.30;93.10;99547.40;107201;1281;58507;-65
2024/01/25 12:20:55;;;;;;;5.00;1.20;;;;;;;3.16;93.54;99551.82;107417;1279;60516;-62
2024/01/25 12:23:43;;;;;;;4.00;1.10;;;;;;;3.02;93.84;99559.94;107133;1280;72985;-66
2024/01/25 12:26:36;;;;;;;5.90;1.20;;;;;;;2.93;94.19;99567.30;107159;1280;67607;-64
2024/01/25 12:29:24;;;;;;;5.70;1.50;;;;;;;2.83;95.02;99573.45;107349;1280;72482;-64
2024/01/25 12:32:12;;;;;;;3.60;1.20;;;;;;;2.83;95.67;99576.02;106931;1283;57509;-64
2024/01/25 12:35:01;;;;;;;5.60;1.20;;;;;;;2.80;95.32;99577.98;106949;1283;59327;-64
2024/01/25 12:37:49;;;;;;;4.70;1.60;;;;;;;2.74;95.65;99581.58;106766;1283;72908;-62
2024/01/25 12:40:37;;;;;;;6.40;1.50;;;;;;;2.79;96.14;99591.70;106947;1283;68046;-62
2024/01/25 12:43:26;;;;;;;5.50;1.30;;;;;;;2.62;96.03;99561.03;106969;1283;72861;-63
2024/01/25 12:46:14;;;;;;;4.90;1.40;;;;;;;2.88;95.61;99592.25;106964;1283;57409;-63
2024/01/25 12:49:13;;;;;;;5.00;1.60;;;;;;;2.94;95.45;99595.98;106747;1283;60400;-64
2024/01/25 12:52:02;;;;;;;5.80;1.10;;;;;;;2.97;95.17;99605.77;106829;1283;71667;-63
2024/01/25 12:54:50;;;;;;;5.10;1.20;;;;;;;2.96;94.08;99607.96;107014;1283;67687;-63
2024/01/25 12:57:38;;;;;;;5.10;1.50;;;;;;;2.89;93.90;99615.48;106885;1283;71195;-62
2024/01/25 13:00:26;;;;;;;4.70;1.40;;;;;;;2.84;95.03;99622.63;106841;1283;57552;-65
2024/01/25 13:03:14;;;;;;;5.00;1.30;;;;;;;2.78;95.55;99624.48;107000;1280;60000;-65